Time;durP1;ratioP1;P1;durP2;ratioP2;P2;SDS_P1;SDS_P2;PMS_P1;PMS_P2;Temp;Humidity;BMP_temperature;BMP_pressure;BME280_temperature;BME280_humidity;BME280_pressure;Samples;Min_cycle;Max_cycle;Signal;HPM_P1;HPM_P2
2022/10/05 00:02:20;;;;;;;;;;;;;;;-144.99;84.74;52403.25;5048221;28;20012;-74
2022/10/05 00:04:48;;;;;;;;;;;;;;;-144.99;84.56;52358.41;5049584;28;19936;-73
2022/10/05 00:07:16;;;;;;;;;;;;;;;-144.99;84.34;52427.72;5049957;28;19935;-73
2022/10/05 00:09:43;;;;;;;;;;;;;;;-144.99;84.81;52372.69;5049464;28;19925;-73
2022/10/05 00:12:13;;;;;;;;;;;;;;;-144.99;85.05;52386.94;5053747;28;19970;-71
2022/10/05 00:14:39;;;;;;;;;;;;;;;-144.99;85.46;52386.94;5056759;28;19986;-71
2022/10/05 00:17:05;;;;;;;;;;;;;;;-144.99;85.08;52397.13;5053317;28;20384;-72
2022/10/05 00:19:33;;;;;;;;;;;;;;;-144.99;85.28;52399.19;5052126;28;19932;-72
2022/10/05 00:22:06;;;;;;;;;;;;;;;-144.99;85.56;52395.09;5050948;28;19932;-72
2022/10/05 00:24:32;;;;;;;;;;;;;;;-144.99;85.84;52366.56;5049384;28;20285;-72
2022/10/05 00:27:00;;;;;;;;;;;;;;;-144.99;85.67;52419.56;5046017;28;20628;-73
2022/10/05 00:29:26;;;;;;;;;;;;;;;-144.99;85.60;52382.88;5044755;28;19929;-72
2022/10/05 00:31:53;;;;;;;;;;;;;;;-144.99;85.42;52378.78;5044550;28;20307;-72
2022/10/05 00:34:19;;;;;;;;;;;;;;;-144.99;85.22;52427.72;5043544;28;19925;-72
2022/10/05 00:36:45;;;;;;;;;;;;;;;-144.99;85.84;52370.63;5055640;28;19931;-73
2022/10/05 00:39:13;;;;;;;;;;;;;;;-144.99;85.68;52407.31;5072518;28;19917;-73
2022/10/05 00:41:48;;;;;;;;;;;;;;;-144.99;85.77;52378.78;5066074;28;19936;-74
2022/10/05 00:44:30;;;;;;;;;;;;;;;-144.99;85.55;52378.78;5070048;28;19992;-74
2022/10/05 00:47:01;;;;;;;;;;;;;;;-144.99;85.41;52386.94;5073618;28;19913;-73
2022/10/05 00:49:36;;;;;;;;;;;;;;;-144.99;85.53;52391.03;5067434;28;19923;-74
2022/10/05 00:52:08;;;;;;;;;;;;;;;-144.99;85.88;52380.84;5072428;28;19995;-75
2022/10/05 00:54:42;;;;;;;;;;;;;;;-144.99;85.91;52399.19;5064075;28;19992;-72
2022/10/05 00:57:15;;;;;;;;;;;;;;;-144.99;85.98;52382.88;5056552;28;19931;-73
2022/10/05 00:59:46;;;;;;;;;;;;;;;-144.99;86.11;52370.63;5067513;28;19935;-73
2022/10/05 01:02:15;;;;;;;;;;;;;;;-144.99;86.31;52411.41;5058248;28;19925;-74
2022/10/05 01:04:47;;;;;;;;;;;;;;;-144.99;86.21;52382.88;5059882;28;19968;-71
2022/10/05 01:07:16;;;;;;;;;;;;;;;-144.99;86.02;52368.59;5052085;28;20078;-71
2022/10/05 01:09:49;;;;;;;;;;;;;;;-144.99;85.98;52407.31;5055171;28;19924;-71
2022/10/05 01:12:21;;;;;;;;;;;;;;;-144.99;86.35;52429.75;5051296;28;19933;-72
2022/10/05 01:14:50;;;;;;;;;;;;;;;-144.99;86.06;52399.19;5045476;28;19934;-71
2022/10/05 01:17:19;;;;;;;;;;;;;;;-144.99;86.04;52431.78;5048631;28;19933;-71
2022/10/05 01:19:57;;;;;;;;;;;;;;;-144.99;86.11;52378.78;5049132;28;19929;-71
2022/10/05 01:22:29;;;;;;;;;;;;;;;-144.99;86.19;52407.31;5047908;28;20279;-71
2022/10/05 01:25:02;;;;;;;;;;;;;;;-144.99;85.71;52435.88;5044679;28;19929;-71
2022/10/05 01:27:33;;;;;;;;;;;;;;;-144.99;86.39;52423.63;5039069;28;19929;-72
2022/10/05 01:30:03;;;;;;;;;;;;;;;-144.99;86.23;52382.88;5050571;28;19925;-72
2022/10/05 01:32:32;;;;;;;;;;;;;;;-144.99;85.85;52407.31;5042874;28;19925;-71
2022/10/05 01:35:05;;;;;;;;;;;;;;;-144.99;85.91;52374.72;5044301;28;19929;-71
2022/10/05 01:37:37;;;;;;;;;;;;;;;-144.99;86.28;52439.94;5049716;28;19925;-71
2022/10/05 01:40:07;;;;;;;;;;;;;;;-144.99;86.25;52403.25;5049848;28;20197;-71
2022/10/05 01:42:40;;;;;;;;;;;;;;;-144.99;86.11;52399.19;5040379;28;19929;-70
2022/10/05 01:45:09;;;;;;;;;;;;;;;-144.99;86.63;52431.78;5045535;28;19924;-72
2022/10/05 01:47:42;;;;;;;;;;;;;;;-144.99;87.16;52391.03;5044012;28;19925;-71
2022/10/05 01:50:12;;;;;;;;;;;;;;;-144.99;87.46;52419.56;5050568;28;20292;-70
2022/10/05 01:52:43;;;;;;;;;;;;;;;-144.99;87.20;52415.47;5041700;28;19933;-71
2022/10/05 01:55:17;;;;;;;;;;;;;;;-144.99;87.23;52439.94;5041031;28;19933;-72
2022/10/05 01:57:52;;;;;;;;;;;;;;;-144.99;87.23;52395.09;5047025;28;19931;-72
2022/10/05 02:00:19;;;;;;;;;;;;;;;-144.99;87.33;52378.78;5043252;28;19929;-72
2022/10/05 02:02:47;;;;;;;;;;;;;;;-144.99;87.92;52415.47;5047894;28;19928;-72
2022/10/05 02:05:16;;;;;;;;;;;;;;;-144.99;87.67;52407.31;5042612;28;20400;-73
2022/10/05 02:07:45;;;;;;;;;;;;;;;-144.99;87.69;52399.19;5047464;28;19978;-72
2022/10/05 02:10:17;;;;;;;;;;;;;;;-144.99;88.51;52427.72;5052006;28;19932;-72
2022/10/05 02:12:46;;;;;;;;;;;;;;;-144.99;88.81;52427.72;5049976;28;20031;-72
2022/10/05 02:15:14;;;;;;;;;;;;;;;-144.99;89.10;52435.88;5045937;28;19925;-72
2022/10/05 02:17:44;;;;;;;;;;;;;;;-144.99;89.17;52431.78;5033292;28;19929;-73
2022/10/05 02:20:11;;;;;;;;;;;;;;;-144.99;89.46;52427.72;5051001;28;20387;-72
2022/10/05 02:22:40;;;;;;;;;;;;;;;-144.99;89.56;52415.47;5049405;28;20310;-72
2022/10/05 02:25:09;;;;;;;;;;;;;;;-144.99;89.51;52415.47;5048129;28;19925;-72
2022/10/05 02:27:39;;;;;;;;;;;;;;;-144.99;89.08;52431.78;5046426;28;19925;-73
2022/10/05 02:30:06;;;;;;;;;;;;;;;-144.99;89.27;52431.78;5050030;28;20020;-73
2022/10/05 02:32:36;;;;;;;;;;;;;;;-144.99;88.74;52350.25;5046586;28;20407;-73
2022/10/05 02:35:06;;;;;;;;;;;;;;;-144.99;88.81;52407.31;5051427;28;19936;-73
2022/10/05 02:37:35;;;;;;;;;;;;;;;-144.99;89.25;52395.09;5043056;28;19932;-73
2022/10/05 02:40:10;;;;;;;;;;;;;;;-144.99;89.51;52391.03;5052399;28;20020;-74
2022/10/05 02:42:42;;;;;;;;;;;;;;;-144.99;89.18;52395.09;5050952;28;19935;-73
2022/10/05 02:45:15;;;;;;;;;;;;;;;-144.99;89.44;52427.72;5057410;28;19929;-73
2022/10/05 02:47:46;;;;;;;;;;;;;;;-144.99;89.48;52407.31;5050317;28;19925;-73
2022/10/05 02:50:17;;;;;;;;;;;;;;;-144.99;90.35;52407.31;5062902;28;19925;-73
2022/10/05 02:52:49;;;;;;;;;;;;;;;-144.99;89.82;52382.88;5051165;28;19925;-73
2022/10/05 02:55:17;;;;;;;;;;;;;;;-144.99;90.07;52415.47;5052594;28;19925;-74
2022/10/05 02:57:48;;;;;;;;;;;;;;;-144.99;90.51;52393.06;5050262;28;19925;-73
2022/10/05 03:00:16;;;;;;;;;;;;;;;-144.99;90.57;52388.97;5054705;28;19925;-74
2022/10/05 03:02:48;;;;;;;;;;;;;;;-144.99;90.69;52386.94;5053732;28;19947;-73
2022/10/05 03:05:18;;;;;;;;;;;;;;;-144.99;90.39;52368.59;5052148;28;19928;-73
2022/10/05 03:07:48;;;;;;;;;;;;;;;-144.99;90.16;52439.94;5047445;28;20322;-73
2022/10/05 03:10:18;;;;;;;;;;;;;;;-144.99;89.91;52395.09;5047006;28;19924;-74
2022/10/05 03:12:51;;;;;;;;;;;;;;;-144.99;89.86;52413.44;5053259;28;19925;-73
2022/10/05 03:15:36;;;;;;;;;;;;;;;-144.99;90.21;52354.34;5052737;28;19924;-73
2022/10/05 03:18:08;;;;;;;;;;;;;;;-144.99;90.18;52393.06;5045115;28;19925;-73
2022/10/05 03:20:39;;;;;;;;;;;;;;;-144.99;90.33;52382.88;5060908;28;19924;-73
2022/10/05 03:23:10;;;;;;;;;;;;;;;-144.99;90.11;52437.91;5057217;28;20307;-73
2022/10/05 03:25:43;;;;;;;;;;;;;;;-144.99;90.51;52399.19;5051104;28;20283;-74
2022/10/05 03:28:13;;;;;;;;;;;;;;;-144.99;90.77;52423.63;5048753;28;19935;-74
2022/10/05 03:30:43;;;;;;;;;;;;;;;-144.99;90.56;52395.09;5048984;28;20027;-75
2022/10/05 03:33:16;;;;;;;;;;;;;;;-144.99;91.00;52391.03;5047114;28;19932;-74
2022/10/05 03:35:48;;;;;;;;;;;;;;;-144.99;90.93;52401.22;5053082;28;19925;-74
2022/10/05 03:38:18;;;;;;;;;;;;;;;-144.99;91.77;52403.25;5042660;28;19924;-75
2022/10/05 03:40:47;;;;;;;;;;;;;;;-144.99;91.65;52399.19;5048463;28;19924;-74
2022/10/05 03:43:26;;;;;;;;;;;;;;;-144.99;91.57;52382.88;5052168;28;19947;-73
2022/10/05 03:45:57;;;;;;;;;;;;;;;-144.99;91.53;52415.47;5047290;28;19925;-74
2022/10/05 03:48:29;;;;;;;;;;;;;;;-144.99;91.67;52419.56;5048639;28;19932;-73
2022/10/05 03:51:03;;;;;;;;;;;;;;;-144.99;92.19;52393.06;5050495;28;19978;-72
2022/10/05 03:53:31;;;;;;;;;;;;;;;-144.99;92.38;52386.94;5051171;28;19925;-72
2022/10/05 03:56:01;;;;;;;;;;;;;;;-144.99;92.53;52378.78;5051727;28;19925;-72
2022/10/05 03:58:31;;;;;;;;;;;;;;;-144.99;91.97;52411.41;5067491;22;19932;-79
2022/10/05 04:00:59;;;;;;;;;;;;;;;-144.99;91.85;52419.56;5035913;28;19971;-81
2022/10/05 04:03:30;;;;;;;;;;;;;;;-144.99;92.66;52378.78;5041347;28;19925;-81
2022/10/05 04:05:59;;;;;;;;;;;;;;;-144.99;92.13;52429.75;5036498;28;19925;-82
2022/10/05 04:08:31;;;;;;;;;;;;;;;-144.99;91.68;52427.72;5039029;28;19925;-78
2022/10/05 04:10:59;;;;;;;;;;;;;;;-144.99;92.16;52423.63;5041391;28;19925;-81
2022/10/05 04:13:31;;;;;;;;;;;;;;;-144.99;92.21;52407.31;5041137;28;19925;-81
2022/10/05 04:16:00;;;;;;;;;;;;;;;-144.99;92.06;52403.25;5039008;28;19941;-82
2022/10/05 04:18:31;;;;;;;;;;;;;;;-144.99;91.93;52393.06;5034906;28;19925;-80
2022/10/05 04:21:00;;;;;;;;;;;;;;;-144.99;92.40;52386.94;5036762;28;19992;-79
2022/10/05 04:23:33;;;;;;;;;;;;;;;-144.99;92.79;52427.72;5031618;28;20304;-79
2022/10/05 04:26:02;;;;;;;;;;;;;;;-144.99;92.63;52382.88;5027280;28;19932;-79
2022/10/05 04:28:40;;;;;;;;;;;;;;;-144.99;92.87;52386.94;5028050;28;19924;-80
2022/10/05 04:31:11;;;;;;;;;;;;;;;-144.99;92.52;52413.44;5034302;28;19925;-80
2022/10/05 04:33:39;;;;;;;;;;;;;;;-144.99;93.27;52448.09;5028848;28;19929;-80
2022/10/05 04:36:12;;;;;;;;;;;;;;;-144.99;92.35;52407.31;5032793;28;19929;-79
2022/10/05 04:38:44;;;;;;;;;;;;;;;-144.99;92.91;52411.41;5025799;28;19929;-79
2022/10/05 04:41:21;;;;;;;;;;;;;;;-144.99;92.33;52382.88;5027706;28;19925;-78
2022/10/05 04:43:55;;;;;;;;;;;;;;;-144.99;92.24;52358.41;5028674;28;19925;-78
2022/10/05 04:46:29;;;;;;;;;;;;;;;-144.99;92.67;52399.19;5028137;28;20403;-79
2022/10/05 04:49:05;;;;;;;;;;;;;;;-144.99;93.37;52431.78;5030989;28;19975;-78
2022/10/05 04:51:37;;;;;;;;;;;;;;;-144.99;93.64;52435.88;5025579;28;20285;-78
2022/10/05 04:54:11;;;;;;;;;;;;;;;-144.99;93.83;52380.84;5026609;28;19941;-78
2022/10/05 04:56:40;;;;;;;;;;;;;;;-144.99;93.64;52403.25;5040339;28;19955;-81
2022/10/05 04:59:23;;;;;;;;;;;;;;;-144.99;93.28;52397.13;5044595;28;19925;-78
2022/10/05 05:01:59;;;;;;;;;;;;;;;-144.99;93.96;52423.63;5036500;28;19929;-80
2022/10/05 05:04:35;;;;;;;;;;;;;;;-144.99;94.31;52407.31;5038744;28;19991;-80
2022/10/05 05:07:09;;;;;;;;;;;;;;;-144.99;95.02;52386.94;5033637;28;20299;-81
2022/10/05 05:09:46;;;;;;;;;;;;;;;-144.99;95.01;52397.13;5035641;28;20388;-81
2022/10/05 05:12:19;;;;;;;;;;;;;;;-144.99;95.07;52382.88;5036293;28;19926;-81
2022/10/05 05:14:55;;;;;;;;;;;;;;;-144.99;95.49;52403.25;5031296;28;19925;-77
2022/10/05 05:17:30;;;;;;;;;;;;;;;-144.99;95.48;52386.94;5027340;28;19932;-79
2022/10/05 05:20:05;;;;;;;;;;;;;;;-144.99;94.92;52407.31;5027741;28;19936;-80
2022/10/05 05:22:36;;;;;;;;;;;;;;;-144.99;95.84;52395.09;5028816;28;20389;-81
2022/10/05 05:25:17;;;;;;;;;;;;;;;-144.99;95.28;52415.47;5021468;28;19926;-83
2022/10/05 05:27:45;;;;;;;;;;;;;;;-144.99;95.67;52427.72;5031856;28;19925;-81
2022/10/05 05:30:21;;;;;;;;;;;;;;;-144.99;95.79;52362.50;5037254;28;19931;-82
2022/10/05 05:32:54;;;;;;;;;;;;;;;-144.99;95.86;52362.50;5028818;28;19925;-80
2022/10/05 05:35:30;;;;;;;;;;;;;;;-144.99;95.81;52386.94;5037170;28;20007;-80
2022/10/05 05:38:06;;;;;;;;;;;;;;;-144.99;96.05;52395.09;5035825;28;20181;-78
2022/10/05 05:40:34;;;;;;;;;;;;;;;-144.99;96.57;52386.94;5035384;28;19925;-81
2022/10/05 05:43:02;;;;;;;;;;;;;;;-144.99;96.83;52415.47;5034636;28;19925;-80
2022/10/05 05:45:34;;;;;;;;;;;;;;;-144.99;96.80;52397.13;5035644;28;19925;-80
2022/10/05 05:48:04;;;;;;;;;;;;;;;-144.99;97.25;52407.31;5034046;28;19936;-80
2022/10/05 05:50:41;;;;;;;;;;;;;;;-144.99;97.72;52382.88;5032660;28;20304;-80
2022/10/05 05:53:12;;;;;;;;;;;;;;;-144.99;97.99;52407.31;5028957;28;19926;-79
2022/10/05 05:55:46;;;;;;;;;;;;;;;-144.99;98.85;52407.31;5037092;28;19936;-80
2022/10/05 05:58:18;;;;;;;;;;;;;;;-144.99;98.96;52423.63;5032344;28;19929;-83
2022/10/05 06:00:47;;;;;;;;;;;;;;;-144.99;99.52;52452.16;5041943;28;19936;-82
2022/10/05 06:03:16;;;;;;;;;;;;;;;-144.99;98.71;52382.88;5041549;28;20075;-81
2022/10/05 06:05:45;;;;;;;;;;;;;;;-144.99;98.30;52433.81;5038490;28;19932;-82
2022/10/05 06:08:15;;;;;;;;;;;;;;;-144.99;98.70;52395.09;5035880;28;19971;-80
2022/10/05 06:10:45;;;;;;;;;;;;;;;-144.99;98.39;52403.25;5045518;28;19992;-82
2022/10/05 06:13:15;;;;;;;;;;;;;;;-144.99;98.79;52384.91;5043090;28;19925;-81
2022/10/05 06:15:43;;;;;;;;;;;;;;;-144.99;98.13;52444.03;5040165;28;19924;-82
2022/10/05 06:18:11;;;;;;;;;;;;;;;-144.99;98.81;52407.31;5043276;28;19992;-82
2022/10/05 06:20:40;;;;;;;;;;;;;;;-144.99;98.82;52395.09;5042326;28;19929;-83
2022/10/05 06:23:12;;;;;;;;;;;;;;;-144.99;98.81;52403.25;5042243;28;19924;-81
2022/10/05 06:25:44;;;;;;;;;;;;;;;-144.99;98.14;52401.22;5040215;28;19932;-82
2022/10/05 06:28:11;;;;;;;;;;;;;;;-144.99;98.94;52399.19;5037228;28;20017;-83
2022/10/05 06:30:44;;;;;;;;;;;;;;;-144.99;98.25;52437.91;5027281;28;20029;-83
2022/10/05 06:33:17;;;;;;;;;;;;;;;-144.99;98.07;52382.88;5032863;28;19925;-83
2022/10/05 06:35:52;;;;;;;;;;;;;;;-144.99;98.94;52376.75;5037790;28;20015;-83
2022/10/05 06:38:29;;;;;;;;;;;;;;;-144.99;98.42;52399.19;5024981;28;20016;-78
2022/10/05 06:40:59;;;;;;;;;;;;;;;-144.99;98.49;52362.50;5028875;28;20304;-81
2022/10/05 06:43:39;;;;;;;;;;;;;;;-144.99;98.50;52419.56;5037820;28;19935;-81
2022/10/05 06:46:09;;;;;;;;;;;;;;;-144.99;97.88;52382.88;5034333;28;19944;-81
2022/10/05 06:48:44;;;;;;;;;;;;;;;-144.99;98.00;52386.94;5030773;28;20327;-81
2022/10/05 06:51:15;;;;;;;;;;;;;;;-144.99;98.51;52427.72;5054451;28;19925;-83
2022/10/05 06:53:48;;;;;;;;;;;;;;;-144.99;98.96;52391.03;5057435;28;19925;-84
2022/10/05 06:56:17;;;;;;;;;;;;;;;-144.99;98.44;52391.03;5057945;28;19940;-86
2022/10/05 06:58:54;;;;;;;;;;;;;;;-144.99;98.30;52391.03;5052344;28;19978;-85
2022/10/05 07:01:28;;;;;;;;;;;;;;;-144.99;97.77;52342.09;5057101;28;19960;-85
2022/10/05 07:04:02;;;;;;;;;;;;;;;-144.99;97.29;52384.91;5057082;28;19913;-85
2022/10/05 07:06:34;;;;;;;;;;;;;;;-144.99;97.78;52391.03;5057650;28;19979;-85
2022/10/05 07:09:16;;;;;;;;;;;;;;;-144.99;98.10;52419.56;5054946;28;19960;-84
2022/10/05 07:11:52;;;;;;;;;;;;;;;-144.99;98.04;52378.78;5054346;28;19929;-82
2022/10/05 07:14:26;;;;;;;;;;;;;;;-144.99;98.33;52399.19;5057669;28;19972;-83
2022/10/05 07:17:05;;;;;;;;;;;;;;;-144.99;97.13;52354.34;5056220;28;19952;-82
2022/10/05 07:19:34;;;;;;;;;;;;;;;-144.99;97.47;52439.94;5053907;28;19921;-82
2022/10/05 07:22:19;;;;;;;;;;;;;;;-144.99;96.80;52374.72;5056854;28;19931;-83
2022/10/05 07:24:49;;;;;;;;;;;;;;;-144.99;96.72;52423.63;5059938;28;20011;-82
2022/10/05 07:27:18;;;;;;;;;;;;;;;-144.99;96.83;52364.53;5055762;28;19940;-82
2022/10/05 07:29:48;;;;;;;;;;;;;;;-144.99;96.75;52409.38;5056963;28;19936;-82
2022/10/05 07:32:22;;;;;;;;;;;;;;;-144.99;96.78;52399.19;5048275;28;19924;-81
2022/10/05 07:34:52;;;;;;;;;;;;;;;-144.99;96.14;52344.16;5056334;28;20194;-80
2022/10/05 07:40:09;;;;;;;;;;;;;;;-144.99;96.72;52380.84;5057005;28;19924;-83
2022/10/05 07:42:43;;;;;;;;;;;;;;;-144.99;97.65;52395.09;5050155;28;20000;-82
2022/10/05 07:45:15;;;;;;;;;;;;;;;-144.99;97.19;52395.09;5050871;28;19952;-77
2022/10/05 07:47:46;;;;;;;;;;;;;;;-144.99;97.34;52358.41;5058859;28;19913;-80
2022/10/05 07:50:18;;;;;;;;;;;;;;;-144.99;97.36;52391.03;5054697;28;19913;-79
2022/10/05 07:52:48;;;;;;;;;;;;;;;-144.99;96.15;52366.56;5055948;28;19913;-77
2022/10/05 07:55:18;;;;;;;;;;;;;;;-144.99;94.85;52407.31;5055973;28;19992;-77
2022/10/05 07:57:51;;;;;;;;;;;;;;;-144.99;94.82;52374.72;5046035;28;19920;-80
2022/10/05 08:00:19;;;;;;;;;;;;;;;-144.99;94.72;52386.94;5048967;28;20048;-80
2022/10/05 08:02:48;;;;;;;;;;;;;;;-144.99;94.27;52350.25;5055056;28;19932;-78
2022/10/05 08:05:19;;;;;;;;;;;;;;;-144.99;93.65;52374.72;5050225;28;19925;-78
2022/10/05 08:07:49;;;;;;;;;;;;;;;-144.99;94.11;52391.03;5053665;28;19924;-77
2022/10/05 08:10:23;;;;;;;;;;;;;;;-144.99;92.96;52386.94;5048426;28;19941;-79
2022/10/05 08:12:56;;;;;;;;;;;;;;;-144.99;93.16;52384.91;5055303;28;19923;-80
2022/10/05 08:15:25;;;;;;;;;;;;;;;-144.99;92.63;52378.78;5055557;28;19952;-82
2022/10/05 08:17:55;;;;;;;;;;;;;;;-144.99;92.44;52391.03;5057760;28;20530;-84
2022/10/05 08:20:29;;;;;;;;;;;;;;;-144.99;91.96;52354.34;5042951;28;19960;-81
2022/10/05 08:22:58;;;;;;;;;;;;;;;-144.99;92.86;52395.09;5054060;28;19989;-82
2022/10/05 08:25:26;;;;;;;;;;;;;;;-144.99;91.83;52333.94;5054833;28;19929;-83
2022/10/05 08:27:55;;;;;;;;;;;;;;;-144.99;91.70;52382.88;5053647;28;19918;-82
2022/10/05 08:30:23;;;;;;;;;;;;;;;-144.99;91.65;52362.50;5051516;28;19913;-82
2022/10/05 08:32:52;;;;;;;;;;;;;;;-144.99;91.04;52395.09;5044704;28;19932;-80
2022/10/05 08:35:25;;;;;;;;;;;;;;;-144.99;91.44;52382.88;5036475;28;19947;-79
2022/10/05 08:37:52;;;;;;;;;;;;;;;-144.99;92.03;52325.81;5030495;28;19961;-81
2022/10/05 08:40:39;;;;;;;;;;;;;;;-144.99;91.32;52346.19;5036781;28;19932;-79
2022/10/05 08:43:12;;;;;;;;;;;;;;;-144.99;90.67;52362.50;5024726;28;20396;-80
2022/10/05 08:45:56;;;;;;;;;;;;;;;-144.99;89.63;52370.63;5029872;28;19960;-80
2022/10/05 08:48:30;;;;;;;;;;;;;;;-144.99;88.71;52374.72;5035086;28;19968;-79
2022/10/05 08:51:15;;;;;;;;;;;;;;;-144.99;88.37;52366.56;5032195;28;20376;-77
2022/10/05 08:53:59;;;;;;;;;;;;;;;-144.99;87.63;52350.25;5030118;28;19940;-82
2022/10/05 08:56:31;;;;;;;;;;;;;;;-144.99;86.93;52354.34;5020303;28;19925;-80
2022/10/05 08:59:07;;;;;;;;;;;;;;;-144.99;85.14;52370.63;5025094;28;19931;-79
2022/10/05 09:01:39;;;;;;;;;;;;;;;-144.99;85.70;52370.63;5024806;28;19925;-80
2022/10/05 09:04:16;;;;;;;;;;;;;;;-144.99;84.58;52336.00;5031419;28;19925;-82
2022/10/05 09:06:56;;;;;;;;;;;;;;;-144.99;83.75;52386.94;5035112;28;19952;-80
2022/10/05 09:09:34;;;;;;;;;;;;;;;-144.99;82.67;52374.72;5035826;28;19925;-80
2022/10/05 09:12:07;;;;;;;;;;;;;;;-144.99;82.67;52370.63;5037953;28;19925;-80
2022/10/05 09:14:38;;;;;;;;;;;;;;;-144.99;80.89;52311.53;5030609;28;19932;-83
2022/10/05 09:17:17;;;;;;;;;;;;;;;-144.99;81.61;52331.91;5015968;28;19929;-81
2022/10/05 09:19:59;;;;;;;;;;;;;;;-144.99;81.35;52338.03;5028906;28;19935;-80
2022/10/05 09:22:36;;;;;;;;;;;;;;;-144.99;81.72;52362.50;5035491;28;20043;-80
2022/10/05 09:25:21;;;;;;;;;;;;;;;-144.99;81.49;52317.66;5030348;28;19986;-81
2022/10/05 09:27:52;;;;;;;;;;;;;;;-144.99;81.33;52391.03;5031016;28;19932;-80
2022/10/05 09:30:36;;;;;;;;;;;;;;;-144.99;82.55;52362.50;5024505;28;19936;-80
2022/10/05 09:33:24;;;;;;;;;;;;;;;-144.99;81.40;52321.72;5031917;28;19940;-82
2022/10/05 09:36:06;;;;;;;;;;;;;;;-144.99;80.63;52338.03;5020248;28;19952;-80
2022/10/05 09:38:40;;;;;;;;;;;;;;;-144.99;80.52;52333.94;5025375;28;19925;-79
2022/10/05 09:41:21;;;;;;;;;;;;;;;-144.99;79.94;52358.41;5033520;28;19991;-80
2022/10/05 09:44:08;;;;;;;;;;;;;;;-144.99;80.48;52358.41;5033999;28;20044;-80
2022/10/05 09:46:52;;;;;;;;;;;;;;;-144.99;79.80;52340.06;5019751;28;19980;-80
2022/10/05 09:49:46;;;;;;;;;;;;;;;-144.99;78.89;52346.19;5019377;28;19930;-80
2022/10/05 09:52:25;;;;;;;;;;;;;;;-144.99;77.49;52329.88;5025246;28;20083;-80
2022/10/05 09:55:07;;;;;;;;;;;;;;;-144.99;77.67;52329.88;5025062;28;19947;-80
2022/10/05 09:57:55;;;;;;;;;;;;;;;-144.99;78.14;52346.19;5031906;28;19925;-79
2022/10/05 10:00:30;;;;;;;;;;;;;;;-144.99;77.18;52362.50;5026685;28;19933;-78
2022/10/05 10:03:16;;;;;;;;;;;;;;;-144.99;75.91;52362.50;5064048;22;19943;-82
2022/10/05 10:06:01;;;;;;;;;;;;;;;-144.99;75.58;52354.34;5079133;28;19924;-79
2022/10/05 10:08:36;;;;;;;;;;;;;;;-144.99;76.34;52366.56;5074742;28;19928;-81
2022/10/05 10:11:11;;;;;;;;;;;;;;;-144.99;76.26;52366.56;5083814;28;19935;-81
2022/10/05 10:13:52;;;;;;;;;;;;;;;-144.99;76.81;52391.03;5079596;28;19924;-78
2022/10/05 10:16:27;;;;;;;;;;;;;;;-144.99;77.21;52350.25;5083452;28;19925;-80
2022/10/05 10:19:12;;;;;;;;;;;;;;;-144.99;77.16;52370.63;5081738;28;20216;-79
2022/10/05 10:21:56;;;;;;;;;;;;;;;-144.99;77.71;52362.50;5077479;28;19928;-79
2022/10/05 10:24:34;;;;;;;;;;;;;;;-144.99;78.53;52354.34;5075213;28;19925;-78
2022/10/05 10:27:16;;;;;;;;;;;;;;;-144.99;78.44;52366.56;5093229;28;19954;-80
2022/10/05 10:30:02;;;;;;;;;;;;;;;-144.99;78.22;52325.81;5085940;28;19923;-82
2022/10/05 10:32:47;;;;;;;;;;;;;;;-144.99;78.79;52372.69;5094242;28;19938;-80
2022/10/05 10:35:18;;;;;;;;;;;;;;;-144.99;79.16;52399.19;5094253;28;19935;-81
2022/10/05 10:38:04;;;;;;;;;;;;;;;-144.99;79.76;52368.59;5094044;28;19925;-83
2022/10/05 10:40:38;;;;;;;;;;;;;;;-144.99;78.64;52374.72;5086476;28;19913;-80
2022/10/05 10:43:31;;;;;;;;;;;;;;;-144.99;79.37;52374.72;5077283;28;19924;-81
2022/10/05 10:46:03;;;;;;;;;;;;;;;-144.99;79.63;52382.88;5096797;28;19967;-80
2022/10/05 10:48:48;;;;;;;;;;;;;;;-144.99;79.39;52364.53;5084877;28;19996;-80
2022/10/05 10:51:19;;;;;;;;;;;;;;;-144.99;79.55;52384.91;5081702;28;20478;-79
2022/10/05 10:54:11;;;;;;;;;;;;;;;-144.99;81.10;52393.06;5073416;28;20015;-79
2022/10/05 10:56:56;;;;;;;;;;;;;;;-144.99;82.58;52368.59;5084402;28;19928;-81
2022/10/05 10:59:40;;;;;;;;;;;;;;;-144.99;83.71;52382.88;5082221;28;19947;-78
2022/10/05 11:02:15;;;;;;;;;;;;;;;-144.99;83.23;52382.88;5086958;28;19924;-79
2022/10/05 11:05:05;;;;;;;;;;;;;;;-144.99;84.25;52338.03;5091820;28;19954;-80
2022/10/05 11:07:39;;;;;;;;;;;;;;;-144.99;84.15;52368.59;5090237;28;19946;-83
2022/10/05 11:10:18;;;;;;;;;;;;;;;-144.99;82.99;52395.09;5082521;28;19935;-81
2022/10/05 11:12:58;;;;;;;;;;;;;;;-144.99;82.98;52382.88;5085582;28;19927;-83
2022/10/05 11:15:35;;;;;;;;;;;;;;;-144.99;82.33;52352.28;5092791;27;20012;-81
2022/10/05 11:18:09;;;;;;;;;;;;;;;-144.99;81.77;52366.56;5086973;27;19979;-81
2022/10/05 11:20:51;;;;;;;;;;;;;;;-144.99;81.50;52366.56;5083756;28;19984;-83
2022/10/05 11:23:29;;;;;;;;;;;;;;;-144.99;80.54;52364.53;5094373;28;19992;-84
2022/10/05 11:26:04;;;;;;;;;;;;;;;-144.99;79.87;52370.63;5089131;28;20022;-82
2022/10/05 11:28:49;;;;;;;;;;;;;;;-144.99;79.80;52386.94;5087056;28;20023;-82
2022/10/05 11:31:34;;;;;;;;;;;;;;;-144.99;79.72;52366.56;5097933;27;19923;-82
2022/10/05 11:34:19;;;;;;;;;;;;;;;-144.99;79.34;52378.78;5092744;28;19924;-82
2022/10/05 11:37:00;;;;;;;;;;;;;;;-144.99;78.28;52397.13;5092835;28;19921;-82
2022/10/05 11:39:40;;;;;;;;;;;;;;;-144.99;78.09;52362.50;5080771;27;19930;-82
2022/10/05 11:42:29;;;;;;;;;;;;;;;-144.99;78.41;52338.03;5094273;28;19909;-83
2022/10/05 11:45:20;;;;;;;;;;;;;;;-144.99;77.84;52350.25;5088211;28;19987;-83
2022/10/05 11:47:57;;;;;;;;;;;;;;;-144.99;77.79;52344.16;5091406;28;19919;-82
2022/10/05 11:50:28;;;;;;;;;;;;;;;-144.99;77.55;52354.34;5090286;28;19936;-80
2022/10/05 11:52:58;;;;;;;;;;;;;;;-144.99;77.51;52370.63;5081784;27;19933;-81
2022/10/05 11:55:27;;;;;;;;;;;;;;;-144.99;77.06;52362.50;5087009;28;19971;-83
2022/10/05 11:57:55;;;;;;;;;;;;;;;-144.99;77.32;52336.00;5095468;28;19912;-81
2022/10/05 12:00:23;;;;;;;;;;;;;;;-144.99;77.20;52354.34;5089667;28;19931;-81
2022/10/05 12:02:57;;;;;;;;;;;;;;;-144.99;76.28;52340.06;5079362;28;19983;-78
2022/10/05 12:05:27;;;;;;;;;;;;;;;-144.99;75.60;52356.38;5066808;28;19931;-79
2022/10/05 12:08:04;;;;;;;;;;;;;;;-144.99;74.50;52362.50;5075086;28;19931;-81
2022/10/05 12:10:36;;;;;;;;;;;;;;;-144.99;75.07;52370.63;5082574;28;19924;-82
2022/10/05 12:13:21;;;;;;;;;;;;;;;-144.99;75.14;52378.78;5087762;28;19924;-83
2022/10/05 12:15:53;;;;;;;;;;;;;;;-144.99;75.76;52342.09;5081335;28;19908;-81
2022/10/05 12:18:22;;;;;;;;;;;;;;;-144.99;75.76;52362.50;5071975;28;20315;-83
2022/10/05 12:20:53;;;;;;;;;;;;;;;-144.99;76.42;52356.38;5075280;28;19912;-79
2022/10/05 12:23:20;;;;;;;;;;;;;;;-144.99;76.02;52370.63;5065220;28;19928;-78
2022/10/05 12:25:53;;;;;;;;;;;;;;;-144.99;75.83;52368.59;5067584;28;19931;-78
2022/10/05 12:28:24;;;;;;;;;;;;;;;-144.99;75.70;52368.59;5073343;28;19931;-77
2022/10/05 12:30:56;;;;;;;;;;;;;;;-144.99;75.05;52378.78;5073414;28;20457;-78
2022/10/05 12:33:26;;;;;;;;;;;;;;;-144.99;75.74;52354.34;5073985;28;19924;-79
2022/10/05 12:35:55;;;;;;;;;;;;;;;-144.99;75.02;52374.72;5070935;28;19979;-76
2022/10/05 12:38:27;;;;;;;;;;;;;;;-144.99;74.67;52317.66;5073908;28;20020;-78
2022/10/05 12:40:59;;;;;;;;;;;;;;;-144.99;74.16;52374.72;5070994;28;19955;-77
2022/10/05 12:43:31;;;;;;;;;;;;;;;-144.99;74.16;52358.41;5077573;28;20015;-77
2022/10/05 12:46:02;;;;;;;;;;;;;;;-144.99;74.57;52358.41;5076439;28;20386;-78
2022/10/05 12:48:35;;;;;;;;;;;;;;;-144.99;74.48;52378.78;5077608;28;19925;-79
2022/10/05 12:51:07;;;;;;;;;;;;;;;-144.99;74.55;52354.34;5077404;28;20003;-78
2022/10/05 12:53:38;;;;;;;;;;;;;;;-144.99;73.92;52382.88;5078537;28;19931;-78
2022/10/05 12:56:09;;;;;;;;;;;;;;;-144.99;74.28;52344.16;5069699;28;19924;-80
2022/10/05 12:58:41;;;;;;;;;;;;;;;-144.99;73.95;52366.56;5070582;28;20472;-76
2022/10/05 13:01:12;;;;;;;;;;;;;;;-144.99;74.65;52333.94;5075638;28;19924;-78
2022/10/05 13:03:42;;;;;;;;;;;;;;;-144.99;74.69;52350.25;5072450;28;19930;-78